OUTERNET - Hardware en funcionamiento

Rincon del Manitas y del cacharreo.
Responder
Avatar de Usuario
Rapidbit
Moderador Global
Moderador Global
Mensajes: 1159
Registrado: 03 Nov 2014 23:22

OUTERNET - Hardware en funcionamiento

Mensaje por Rapidbit » 19 Nov 2016 16:58

Bueno, llego mi regalo/capricho, el Kit para recibir Outernet.
Fácil de montar, fácil de apuntar, todo preconfigurado, lógicamente "muy lento" al bajar información.
Me falta un poco de "cacharreo" para montar la antena en alguna base más cómada y poder ver/grabar/analizar la señal.

Os dejo algunos enlaces para los que estéis interesados.
Información web RTL-SDR: http://www.rtl-sdr.com/testing-the-oute ... ows-linux/
Información web RTL-SDR: http://www.rtl-sdr.com/rtl-sdr-tutorial ... -outernet/
Información web RTL-SDR: http://www.rtl-sdr.com/review-outernet- ... h-antenna/
Web Oficial: https://outernet.is/

Datos de Interés:
Satélite: INMARSAT 3-F5 / Inmarsat 4-F2
Orientación: 25º Este

Algunas fotos descargando información y los componentes del kit.

Saludos.
No tiene los permisos requeridos para ver los archivos adjuntos a este mensaje.
EA4GPX, EA4022SWL, AMSAT-EA 423.

Kilo
Mensajes: 204
Registrado: 11 Ago 2015 20:03

OUTERNET - Hardware en funcionamiento

Mensaje por Kilo » 20 Nov 2016 12:13

Gracias

Avatar de Usuario
Rapidbit
Moderador Global
Moderador Global
Mensajes: 1159
Registrado: 03 Nov 2014 23:22

OUTERNET - Hardware en funcionamiento

Mensaje por Rapidbit » 21 Nov 2016 18:08

Primeros pasos en Banda L, SATCOM ACARS con JAERO.
Info: http://www.rtl-sdr.com/jaero-a-new-rtl- ... o-signals/

Saludos.
No tiene los permisos requeridos para ver los archivos adjuntos a este mensaje.
EA4GPX, EA4022SWL, AMSAT-EA 423.

Avatar de Usuario
Rapidbit
Moderador Global
Moderador Global
Mensajes: 1159
Registrado: 03 Nov 2014 23:22

OUTERNET - Hardware en funcionamiento

Mensaje por Rapidbit » 21 Nov 2016 18:45

Algunas capturas:
18:29:43 21-11-16 AES:780CCD GES:90 2 .B-5959 ! A9 O

/BJSATYA.TI2/ZBAA ARR ATIS O
1700Z EXPECT 36L ILS APPROACH 36R ILS
APPROCH
ARR RWY 36L AND 36R
CTN
EXPECT RADAR VECTOR VISUAL APPROACH,
CAUTION DO NOT OVERSHOOT YOU ASSIGNED
RUNWAY CENTERLINE
CAUTION WIND SHEAR ON FINAL
01 ARR IS CLSD REASON AVOID NOISE
RWY DEPENDENT PARALLEL APPROACHES
RNAV ARR IS AVAIL

CAVOK
WIND 320 DEG 08 MPS
T M05 /DP M20
QNH 1039 HPA
RPT RECEIPT OF ATIS O ON ZBAAARR
C8ED

18:29:53 21-11-16 AES:4BB1C6 GES:90 2 .TC-LNF ! RA D

QUISTBITK~1THY METSERVER
EINN -SNN - SHANNON
SA 211700Z 35012KT 9999 FEW015 FEW018CB BKN200 04/02 Q0998
NOSIG.
FT 211700Z 2118/2218 35013KT 9999 SCT018 PROB30
TEMPO 2118/2120 35015G25KT.

BIKF -KEF - KEFLAVIK
SA 211700Z 03007KT 9999 SCT037 BKN220 M01/M03 Q1019.
FT 211618Z 2118/2218 01008KT 9999 FEW017 SCT030 TX01/2215Z
TNM05/2124Z
BECMG 2118/2121 VRB05KT
BECMG 2205/2208 15017KT
BECMG 2209/2212 SHSN BKN020
TEMPO 2212/2218 5000 SN BKN015 OVC020.

CYYR -YYR - GOOSE BAY
SA 211700Z 07007KT 1SM -DZRA BR OVC003 03/03 A2961 RMK FG3SF5
SLP031.
FT 211505Z 2115/2212 05005KT 1/2SM -SHRA -DZ FG OVC003
TEMPO 2115/2201 4SM BR SCT003 OVC015
FM220100 VRB03KT 3/4SM -DZ BR SCT002 OVC005
FM220900 VRB03KT 1SM -RA BR OVC005
RMK NXT FCST BY 211800Z.

18:31:19 21-11-16 AES:06A078 GES:90 2 .A7-BAK ! 15 O

REQPOS

18:35:27 21-11-16 AES:4BA9E2 GES:90 2 .TC-JOB ! A6 U

/YQXE2YA.ADS.TC-JOB080314EE9E

18:35:39 21-11-16 AES:780DAF GES:90 2 .B-5966 ! A9 R

/DXBATYA.TI2/OMDB ARR DEMAND ATIS I
1730Z OMDB ARR I
AT TIME 1730
ARR RWY 12L
AIRFIELD INFO VRB06KT
7000
NSC
27/17
Q1015
NOSIG
EXP ILS APP
ADZ ACFT TYPE ON FST CTC
MIN RWY OCC REQ
SQWK ASSIGNED TRANSPONDER CODE
CAUTION
POSSIBLE GS FLUC
REDUCED WAKE TURBULENCE
SEPARATION TRIAL IN PROGRESS
ADVS ATC COPIED I7EF6

18:36:09 21-11-16 AES:48AE02 GES:90 2 .SP-LRC ! RA I

QUHDQOCLO~1RA101211735 TAKEOFF DATA
TAKEOFF DATA READY
No tiene los permisos requeridos para ver los archivos adjuntos a este mensaje.
EA4GPX, EA4022SWL, AMSAT-EA 423.

Avatar de Usuario
Rapidbit
Moderador Global
Moderador Global
Mensajes: 1159
Registrado: 03 Nov 2014 23:22

OUTERNET - Hardware en funcionamiento

Mensaje por Rapidbit » 16 Ene 2017 19:57

Outernet en Windows con Máquina virtual y RTL-SDR.
Saludos.
No tiene los permisos requeridos para ver los archivos adjuntos a este mensaje.
EA4GPX, EA4022SWL, AMSAT-EA 423.

DavidPot
Mensajes: 9
Registrado: 31 Dic 2016 02:13

OUTERNET - Hardware en funcionamiento

Mensaje por DavidPot » 17 Ene 2017 23:43

Buen cacharro al parecer. Enhorabuena ;)

Responder